createdAt,value
2019-02-12T00:01:40.225Z,14.83
2019-02-12T00:04:09.878Z,15.03
2019-02-12T00:06:39.743Z,9.50
2019-02-12T00:09:11.369Z,15.07
2019-02-12T00:11:41.030Z,14.37
2019-02-12T00:14:10.617Z,12.70
2019-02-12T00:16:40.508Z,12.07
2019-02-12T00:19:10.068Z,6.53
2019-02-12T00:21:39.809Z,18.33
2019-02-12T00:24:09.475Z,10.53
2019-02-12T00:26:39.359Z,10.77
2019-02-12T00:29:08.963Z,13.57
2019-02-12T00:31:38.658Z,13.17
2019-02-12T00:34:08.405Z,11.13
2019-02-12T00:36:38.018Z,14.63
2019-02-12T00:39:07.938Z,8.87
2019-02-12T00:41:37.488Z,12.93
2019-02-12T00:44:07.114Z,14.60
2019-02-12T00:46:36.909Z,10.47
2019-02-12T00:49:06.557Z,17.23
2019-02-12T00:51:36.187Z,20.33
2019-02-12T00:54:06.002Z,11.53
2019-02-12T00:56:35.669Z,9.93
2019-02-12T00:59:05.398Z,11.30
2019-02-12T01:01:35.254Z,8.67
2019-02-12T01:04:04.845Z,16.10
2019-02-12T01:06:34.574Z,11.33
2019-02-12T01:09:04.778Z,13.13
2019-02-12T01:11:34.392Z,16.03
2019-02-12T01:14:03.970Z,12.27
2019-02-12T01:16:33.768Z,15.97
2019-02-12T01:19:03.322Z,10.80
2019-02-12T01:21:33.327Z,18.30
2019-02-12T01:24:02.999Z,10.00
2019-02-12T01:26:32.679Z,12.97
2019-02-12T01:29:02.377Z,8.93
2019-02-12T01:31:31.978Z,14.13
2019-02-12T01:34:01.563Z,11.90
2019-02-12T01:36:31.328Z,13.30
2019-02-12T01:39:00.903Z,18.27
2019-02-12T01:41:30.546Z,14.20
2019-02-12T01:44:00.116Z,11.43
2019-02-12T01:46:29.624Z,6.87
2019-02-12T01:48:59.564Z,17.33
2019-02-12T01:51:34.941Z,10.10
2019-02-12T01:54:00.603Z,14.33
2019-02-12T01:56:30.189Z,13.33
2019-02-12T01:58:59.964Z,13.37
2019-02-12T02:01:29.558Z,12.07
2019-02-12T02:03:59.643Z,13.40
2019-02-12T02:06:29.149Z,10.43
2019-02-12T02:08:59.098Z,12.23
2019-02-12T02:11:28.694Z,13.27
2019-02-12T02:13:58.510Z,13.33
2019-02-12T02:16:28.079Z,11.00
2019-02-12T02:18:58.142Z,11.67
2019-02-12T02:21:27.769Z,15.73
2019-02-12T02:23:57.444Z,11.60
2019-02-12T02:26:27.056Z,14.20
2019-02-12T02:28:57.107Z,13.90
2019-02-12T02:31:26.733Z,11.40
2019-02-12T02:33:56.322Z,7.93
2019-02-12T02:36:25.965Z,12.87
2019-02-12T02:38:55.790Z,11.27
2019-02-12T02:41:25.447Z,9.30
2019-02-12T02:43:55.023Z,14.70
2019-02-12T02:46:24.586Z,7.10
2019-02-12T02:48:54.208Z,11.67
2019-02-12T02:51:23.783Z,16.23
2019-02-12T02:53:53.522Z,8.70
2019-02-12T02:56:23.112Z,15.07
2019-02-12T02:58:52.689Z,10.80
2019-02-12T03:01:22.574Z,8.37
2019-02-12T03:03:52.396Z,12.50
2019-02-12T03:06:22.036Z,17.27
2019-02-12T03:08:51.869Z,15.43
2019-02-12T03:11:21.413Z,14.37
2019-02-12T03:13:50.918Z,14.80
2019-02-12T03:16:20.473Z,19.70
2019-02-12T03:18:50.043Z,15.17
2019-02-12T03:21:19.657Z,14.10
2019-02-12T03:23:49.446Z,18.63
2019-02-12T03:26:19.242Z,14.70
2019-02-12T03:28:48.767Z,10.73
2019-02-12T03:31:18.299Z,13.53
2019-02-12T03:33:47.973Z,15.47
2019-02-12T03:36:17.558Z,21.10
2019-02-12T03:38:47.246Z,13.30
2019-02-12T03:41:16.983Z,17.40
2019-02-12T03:43:46.628Z,16.67
2019-02-12T03:46:16.605Z,11.07
2019-02-12T03:48:46.242Z,24.90
2019-02-12T03:51:15.947Z,18.97
2019-02-12T03:53:45.622Z,20.63
2019-02-12T03:56:15.237Z,13.53
2019-02-12T03:58:44.962Z,11.47
2019-02-12T04:01:14.610Z,20.57
2019-02-12T04:03:45.777Z,17.77
2019-02-12T04:06:15.483Z,18.87
2019-02-12T04:08:45.116Z,13.80
2019-02-12T04:11:14.715Z,14.77
2019-02-12T04:13:44.282Z,13.90
2019-02-12T04:16:13.841Z,16.03
2019-02-12T04:18:43.590Z,14.37
2019-02-12T04:21:13.311Z,13.40
2019-02-12T04:23:42.955Z,14.00
2019-02-12T04:26:12.542Z,12.27
2019-02-12T04:28:42.036Z,18.30
2019-02-12T04:31:11.634Z,14.97
2019-02-12T04:33:41.483Z,13.60
2019-02-12T04:36:11.072Z,10.87
2019-02-12T04:38:40.762Z,17.60
2019-02-12T04:41:10.508Z,15.30
2019-02-12T04:43:40.155Z,17.13
2019-02-12T04:46:09.976Z,9.97
2019-02-12T04:48:39.593Z,22.70
2019-02-12T04:51:09.460Z,10.83
2019-02-12T04:53:39.012Z,11.93
2019-02-12T04:56:08.847Z,12.00
2019-02-12T04:58:38.482Z,15.97
2019-02-12T05:01:08.645Z,9.67
2019-02-12T05:03:38.379Z,12.90
2019-02-12T05:06:08.189Z,14.43
2019-02-12T05:09:13.357Z,11.40
2019-02-12T05:11:47.932Z,12.67
2019-02-12T05:14:17.736Z,12.97
2019-02-12T05:16:47.300Z,18.30
2019-02-12T05:19:17.031Z,15.43
2019-02-12T05:21:46.708Z,16.00
2019-02-12T05:24:16.446Z,13.37
2019-02-12T05:26:46.255Z,11.50
2019-02-12T05:29:18.192Z,14.77
2019-02-12T05:31:47.188Z,17.40
2019-02-12T05:34:16.845Z,8.63
2019-02-12T05:36:46.401Z,11.17
2019-02-12T05:39:15.936Z,15.73
2019-02-12T05:41:45.522Z,13.07
2019-02-12T05:44:15.046Z,12.27
2019-02-12T05:46:44.532Z,12.53
2019-02-12T05:49:14.147Z,8.50
2019-02-12T05:51:43.775Z,16.83
2019-02-12T05:54:13.392Z,12.43
2019-02-12T05:56:43.016Z,21.30
2019-02-12T05:59:13.240Z,14.70
2019-02-12T06:01:42.909Z,10.00
2019-02-12T06:04:12.478Z,11.50
2019-02-12T06:06:42.161Z,13.33
2019-02-12T06:09:12.189Z,14.37
2019-02-12T06:11:42.048Z,13.43
2019-02-12T06:14:11.605Z,12.60
2019-02-12T06:16:41.100Z,12.07
2019-02-12T06:19:11.668Z,9.67
2019-02-12T06:21:41.218Z,15.80
2019-02-12T06:24:11.100Z,13.67
2019-02-12T06:26:40.834Z,11.40
2019-02-12T06:29:10.454Z,11.23
2019-02-12T06:31:40.120Z,11.17
2019-02-12T06:34:09.830Z,18.47
2019-02-12T06:36:39.501Z,17.77
2019-02-12T06:39:09.124Z,16.67
2019-02-12T06:41:38.886Z,14.93
2019-02-12T06:44:08.369Z,18.00
2019-02-12T06:46:37.955Z,18.33
2019-02-12T06:49:07.522Z,14.00
2019-02-12T06:51:37.389Z,17.17
2019-02-12T06:54:07.006Z,14.60
2019-02-12T06:56:36.881Z,17.73
2019-02-12T06:59:06.461Z,13.20
2019-02-12T07:01:36.224Z,11.83
2019-02-12T07:04:05.840Z,16.10
2019-02-12T07:06:57.979Z,12.20
2019-02-12T07:09:32.214Z,18.80
2019-02-12T07:12:24.002Z,14.23
2019-02-12T07:15:16.111Z,16.67
2019-02-12T07:18:20.695Z,10.77
2019-02-12T07:21:15.715Z,14.77
2019-02-12T07:24:13.701Z,13.87
2019-02-12T07:27:19.345Z,19.70
2019-02-12T07:30:11.220Z,16.30
2019-02-12T07:33:13.144Z,10.10
2019-02-12T07:35:59.492Z,10.77
2019-02-12T07:38:42.265Z,12.67
2019-02-12T07:41:20.398Z,15.13
2019-02-12T07:44:11.129Z,11.90
2019-02-12T07:47:02.962Z,13.77
2019-02-12T07:49:43.019Z,17.33
2019-02-12T07:52:34.739Z,18.67
2019-02-12T07:55:11.690Z,22.50
2019-02-12T07:58:03.348Z,12.67
2019-02-12T08:01:15.445Z,17.53
2019-02-12T08:04:04.705Z,18.10
2019-02-12T08:06:47.705Z,16.77
2019-02-12T08:10:01.481Z,14.63
2019-02-12T08:13:04.692Z,13.27
2019-02-12T08:16:08.299Z,19.63
2019-02-12T08:19:05.116Z,17.10
2019-02-12T08:21:46.414Z,20.37
2019-02-12T08:24:31.947Z,15.97
2019-02-12T08:27:47.268Z,18.43
2019-02-12T08:30:27.516Z,18.17
2019-02-12T08:33:04.287Z,16.00
2019-02-12T08:35:56.990Z,14.03
2019-02-12T08:38:35.066Z,14.83
2019-02-12T08:41:21.095Z,19.33
2019-02-12T08:44:21.055Z,25.00
2019-02-12T08:47:06.536Z,16.27
2019-02-12T08:50:03.051Z,17.40
2019-02-12T08:53:02.947Z,10.63
2019-02-12T08:56:13.369Z,16.30
2019-02-12T08:58:59.212Z,21.83
2019-02-12T09:01:51.788Z,16.37
2019-02-12T09:04:59.352Z,12.97
2019-02-12T09:07:36.540Z,11.77
2019-02-12T09:10:22.751Z,19.83
2019-02-12T09:13:18.187Z,16.53
2019-02-12T09:16:41.307Z,18.93
2019-02-12T09:19:36.808Z,11.77
2019-02-12T09:22:42.797Z,15.20
2019-02-12T09:25:35.391Z,15.50
2019-02-12T09:28:24.506Z,15.73
2019-02-12T09:31:16.566Z,21.13
2019-02-12T09:33:53.803Z,20.77
2019-02-12T09:36:40.203Z,15.93
2019-02-12T09:39:44.381Z,9.87
2019-02-12T09:42:45.396Z,15.10
2019-02-12T09:45:46.151Z,17.97
2019-02-12T09:48:35.026Z,15.57
2019-02-12T09:51:18.354Z,15.60
2019-02-12T09:54:19.872Z,17.73
2019-02-12T09:56:56.783Z,17.37
2019-02-12T09:59:40.029Z,18.60
2019-02-12T10:02:17.194Z,13.73
2019-02-12T10:05:03.475Z,17.93
2019-02-12T10:07:59.145Z,17.00
2019-02-12T10:10:45.510Z,16.00
2019-02-12T10:13:44.294Z,10.73
2019-02-12T10:16:21.447Z,9.47
2019-02-12T10:19:19.763Z,18.20
2019-02-12T10:22:19.233Z,12.77
2019-02-12T10:24:56.693Z,9.80
2019-02-12T10:28:04.842Z,12.13
2019-02-12T10:30:50.799Z,12.33
2019-02-12T10:33:20.527Z,10.33
2019-02-12T10:35:50.155Z,19.10
2019-02-12T10:38:19.867Z,14.37
2019-02-12T10:40:49.543Z,16.87
2019-02-12T10:43:19.250Z,12.63
2019-02-12T10:45:48.922Z,16.40
2019-02-12T10:48:18.520Z,15.13
2019-02-12T10:50:48.316Z,15.70
2019-02-12T10:53:18.147Z,17.00
2019-02-12T10:55:47.777Z,19.97
2019-02-12T10:58:17.509Z,14.30
2019-02-12T11:00:47.174Z,15.53
2019-02-12T11:03:16.754Z,13.23
2019-02-12T11:05:46.468Z,11.20
2019-02-12T11:11:19.039Z,15.07
2019-02-12T11:13:48.614Z,20.47
2019-02-12T11:16:18.526Z,16.83
2019-02-12T11:18:48.266Z,17.77
2019-02-12T11:21:17.856Z,14.93
2019-02-12T11:23:47.500Z,18.63
2019-02-12T11:26:17.154Z,18.83
2019-02-12T11:28:46.747Z,22.30
2019-02-12T11:31:16.419Z,17.20
2019-02-12T11:33:46.079Z,16.53
2019-02-12T11:36:15.928Z,13.07
2019-02-12T11:38:45.528Z,15.33
2019-02-12T11:41:15.371Z,17.93
2019-02-12T11:43:44.937Z,22.87
2019-02-12T11:46:14.702Z,17.53
2019-02-12T11:48:44.533Z,18.87
2019-02-12T11:51:14.433Z,18.40
2019-02-12T11:53:44.011Z,17.93
2019-02-12T11:56:13.753Z,18.47
2019-02-12T11:58:43.347Z,18.43
2019-02-12T12:01:14.968Z,15.90
2019-02-12T12:03:44.647Z,18.67
2019-02-12T12:06:16.008Z,17.10
2019-02-12T12:08:45.606Z,17.00
2019-02-12T12:11:15.237Z,15.40
2019-02-12T12:13:44.932Z,19.53
2019-02-12T12:16:14.593Z,18.43
2019-02-12T12:18:44.334Z,18.07
2019-02-12T12:21:13.974Z,23.47
2019-02-12T12:23:43.783Z,22.57
2019-02-12T12:26:13.367Z,19.37
2019-02-12T12:28:43.438Z,17.30
2019-02-12T12:31:13.054Z,20.43
2019-02-12T12:33:42.994Z,18.13
2019-02-12T12:36:12.630Z,18.13
2019-02-12T12:38:43.753Z,20.43
2019-02-12T12:41:13.483Z,14.87
2019-02-12T12:43:43.153Z,16.77
2019-02-12T12:46:12.757Z,11.73
2019-02-12T12:48:42.282Z,18.63
2019-02-12T12:51:11.944Z,20.33
2019-02-12T12:53:41.573Z,11.63
2019-02-12T12:56:11.571Z,17.50
2019-02-12T12:58:41.167Z,15.87
2019-02-12T13:01:10.899Z,13.70
2019-02-12T13:03:40.480Z,14.10
2019-02-12T13:06:11.639Z,17.17
2019-02-12T13:08:41.582Z,16.07
2019-02-12T13:11:11.207Z,19.37
2019-02-12T13:13:40.798Z,15.60
2019-02-12T13:16:10.502Z,23.53
2019-02-12T13:18:40.344Z,21.20
2019-02-12T13:21:10.011Z,22.70
2019-02-12T13:23:39.610Z,15.83
2019-02-12T13:26:09.376Z,17.27
2019-02-12T13:28:39.092Z,17.30
2019-02-12T13:31:08.790Z,16.37
2019-02-12T13:33:38.509Z,14.30
2019-02-12T13:36:08.201Z,22.47
2019-02-12T13:38:38.136Z,21.60
2019-02-12T13:41:08.260Z,13.00
2019-02-12T13:43:37.912Z,19.30
2019-02-12T13:46:07.673Z,24.80
2019-02-12T13:48:37.177Z,15.83
2019-02-12T13:51:06.983Z,14.57
2019-02-12T13:53:36.582Z,22.90
2019-02-12T13:56:06.470Z,15.27
2019-02-12T13:58:36.183Z,17.87
2019-02-12T14:01:05.905Z,18.83
2019-02-12T14:03:35.734Z,21.30
2019-02-12T14:06:05.649Z,15.87
2019-02-12T14:08:35.423Z,23.03
2019-02-12T14:11:05.077Z,14.33
2019-02-12T14:13:34.658Z,22.77
2019-02-12T14:16:08.584Z,16.10
2019-02-12T14:18:38.307Z,21.77
2019-02-12T14:21:07.878Z,19.03
2019-02-12T14:23:37.591Z,23.43
2019-02-12T14:26:07.276Z,20.37
2019-02-12T14:28:37.067Z,19.90
2019-02-12T14:31:06.698Z,17.73
2019-02-12T14:33:36.491Z,23.43
2019-02-12T14:36:06.001Z,22.90
2019-02-12T14:38:35.820Z,24.47
2019-02-12T14:41:05.441Z,20.27
2019-02-12T14:43:35.096Z,26.80
2019-02-12T14:46:04.830Z,26.07
2019-02-12T14:48:34.652Z,21.67
2019-02-12T14:51:04.364Z,22.63
2019-02-12T14:53:34.261Z,22.23
2019-02-12T14:56:11.146Z,22.10
2019-02-12T14:58:35.153Z,25.83
2019-02-12T15:01:04.906Z,17.53
2019-02-12T15:03:34.542Z,27.53
2019-02-12T15:06:04.170Z,24.83
2019-02-12T15:08:33.758Z,25.10
2019-02-12T15:11:03.313Z,20.70
2019-02-12T15:13:33.100Z,23.03
2019-02-12T15:16:02.985Z,22.63
2019-02-12T15:18:32.705Z,23.47
2019-02-12T15:21:02.414Z,21.17
2019-02-12T15:23:31.999Z,25.03
2019-02-12T15:26:01.707Z,28.00
2019-02-12T15:28:32.367Z,24.60
2019-02-12T15:31:02.260Z,20.53
2019-02-12T15:33:31.746Z,22.50
2019-02-12T15:36:01.408Z,25.43
2019-02-12T15:38:31.151Z,20.93
2019-02-12T15:41:01.086Z,22.77
2019-02-12T15:43:30.718Z,24.57
2019-02-12T15:46:00.432Z,17.67
2019-02-12T15:48:30.061Z,19.97
2019-02-12T15:51:00.044Z,22.13
2019-02-12T15:53:29.557Z,21.17
2019-02-12T15:55:59.405Z,15.93
2019-02-12T15:58:30.281Z,21.10
2019-02-12T16:01:01.949Z,23.43
2019-02-12T16:03:33.991Z,27.03
2019-02-12T16:06:04.006Z,17.30
2019-02-12T16:08:33.603Z,15.80
2019-02-12T16:11:03.388Z,17.93
2019-02-12T16:13:34.777Z,19.63
2019-02-12T16:16:05.769Z,24.93
2019-02-12T16:18:36.431Z,18.47
2019-02-12T16:21:06.405Z,16.20
2019-02-12T16:23:36.082Z,18.60
2019-02-12T16:26:05.962Z,22.20
2019-02-12T16:28:35.662Z,17.83
2019-02-12T16:31:05.300Z,20.60
2019-02-12T16:33:35.182Z,20.00
2019-02-12T16:36:04.823Z,19.63
2019-02-12T16:38:34.601Z,27.83
2019-02-12T16:41:05.911Z,21.73
2019-02-12T16:43:35.728Z,19.37
2019-02-12T16:46:10.059Z,21.50
2019-02-12T16:48:39.705Z,28.87
2019-02-12T16:51:09.405Z,24.80
2019-02-12T16:53:43.508Z,33.83
2019-02-12T16:56:14.640Z,20.77
2019-02-12T16:58:44.337Z,26.83
2019-02-12T17:01:15.190Z,23.40
2019-02-12T17:03:45.026Z,26.20
2019-02-12T17:06:15.019Z,25.40
2019-02-12T17:08:44.781Z,24.60
2019-02-12T17:11:14.589Z,26.07
2019-02-12T17:13:44.402Z,27.50
2019-02-12T17:16:15.858Z,24.73
2019-02-12T17:18:45.782Z,24.30
2019-02-12T17:21:15.801Z,30.53
2019-02-12T17:23:45.556Z,24.90
2019-02-12T17:26:16.624Z,29.67
2019-02-12T17:28:46.507Z,23.80
2019-02-12T17:31:16.163Z,28.20
2019-02-12T17:33:45.856Z,24.23
2019-02-12T17:36:15.521Z,26.13
2019-02-12T17:38:45.132Z,26.23
2019-02-12T17:41:16.291Z,22.17
2019-02-12T17:43:45.980Z,24.83
2019-02-12T17:46:15.591Z,28.87
2019-02-12T17:48:45.283Z,25.63
2019-02-12T17:51:15.085Z,25.90
2019-02-12T17:53:44.699Z,30.23
2019-02-12T17:56:14.445Z,27.50
2019-02-12T17:58:44.057Z,33.93
2019-02-12T18:01:13.950Z,45.77
2019-02-12T18:03:43.614Z,29.03
2019-02-12T18:06:13.589Z,31.47
2019-02-12T18:08:43.071Z,24.23
2019-02-12T18:11:12.772Z,33.33
2019-02-12T18:13:42.325Z,27.17
2019-02-12T18:16:12.311Z,33.43
2019-02-12T18:18:46.802Z,34.70
2019-02-12T18:21:25.072Z,28.90
2019-02-12T18:24:00.898Z,32.27
2019-02-12T18:26:37.812Z,31.33
2019-02-12T18:29:07.458Z,32.53
2019-02-12T18:31:37.163Z,27.87
2019-02-12T18:34:07.051Z,29.50
2019-02-12T18:36:36.664Z,30.33
2019-02-12T18:39:07.325Z,27.00
2019-02-12T18:41:37.145Z,30.47
2019-02-12T18:44:06.789Z,27.40
2019-02-12T18:46:36.508Z,36.33
2019-02-12T18:49:06.237Z,31.13
2019-02-12T18:51:36.042Z,23.20
2019-02-12T18:54:06.016Z,33.07
2019-02-12T18:56:41.446Z,30.37
2019-02-12T18:59:07.540Z,26.83
2019-02-12T19:01:37.346Z,26.90
2019-02-12T19:04:07.105Z,29.17
2019-02-12T19:06:37.687Z,31.30
2019-02-12T19:09:09.318Z,29.43
2019-02-12T19:11:45.925Z,27.37
2019-02-12T19:14:10.566Z,26.03
2019-02-12T19:16:40.331Z,29.00
2019-02-12T19:19:10.103Z,26.90
2019-02-12T19:21:40.161Z,29.97
2019-02-12T19:24:10.102Z,25.23
2019-02-12T19:26:39.880Z,29.33
2019-02-12T19:29:09.868Z,26.93
2019-02-12T19:31:39.563Z,27.80
2019-02-12T19:34:09.329Z,31.17
2019-02-12T19:36:39.255Z,31.60
2019-02-12T19:39:09.276Z,28.97
2019-02-12T19:41:39.003Z,29.93
2019-02-12T19:44:08.810Z,28.40
2019-02-12T19:46:39.835Z,26.47
2019-02-12T19:49:09.986Z,28.23
2019-02-12T19:51:39.669Z,26.90
2019-02-12T19:54:09.442Z,28.60
2019-02-12T19:56:39.186Z,28.53
2019-02-12T19:59:08.996Z,27.00
2019-02-12T20:01:38.631Z,30.43
2019-02-12T20:04:08.858Z,29.17
2019-02-12T20:06:38.686Z,26.73
2019-02-12T20:09:10.717Z,28.30
2019-02-12T20:11:40.499Z,39.83
2019-02-12T20:14:11.761Z,30.70
2019-02-12T20:16:41.541Z,29.13
2019-02-12T20:19:12.461Z,30.43
2019-02-12T20:21:42.289Z,29.37
2019-02-12T20:24:12.146Z,26.10
2019-02-12T20:26:42.557Z,34.93
2019-02-12T20:29:12.515Z,34.43
2019-02-12T20:31:42.397Z,32.20
2019-02-12T20:34:12.373Z,30.20
2019-02-12T20:36:42.216Z,27.77
2019-02-12T20:39:11.992Z,32.13
2019-02-12T20:41:42.315Z,36.03
2019-02-12T20:44:11.974Z,45.40
2019-02-12T20:46:42.613Z,41.10
2019-02-12T20:49:12.459Z,44.17
2019-02-12T20:51:42.351Z,41.43
2019-02-12T20:54:12.260Z,39.53
2019-02-12T20:56:42.743Z,44.37
2019-02-12T20:59:12.561Z,51.40
2019-02-12T21:01:42.408Z,44.27
2019-02-12T21:04:24.828Z,40.33
2019-02-12T21:06:55.021Z,32.60
2019-02-12T21:09:24.742Z,36.03
2019-02-12T21:11:54.753Z,33.40
2019-02-12T21:14:24.592Z,36.07
2019-02-12T21:16:54.241Z,32.87
2019-02-12T21:19:24.142Z,37.27
2019-02-12T21:21:54.247Z,34.87
2019-02-12T21:24:24.088Z,36.90
2019-02-12T21:26:56.022Z,31.60
2019-02-12T21:29:25.750Z,35.07
2019-02-12T21:31:55.598Z,30.47
2019-02-12T21:34:27.609Z,34.53
2019-02-12T21:36:57.507Z,32.03
2019-02-12T21:39:28.894Z,34.17
2019-02-12T21:41:58.779Z,33.50
2019-02-12T21:44:28.767Z,37.53
2019-02-12T21:46:58.540Z,34.53
2019-02-12T21:49:29.558Z,39.03
2019-02-12T21:51:59.451Z,39.67
2019-02-12T21:54:29.812Z,32.40
2019-02-12T21:56:59.372Z,31.87
2019-02-12T21:59:29.174Z,33.07
2019-02-12T22:01:58.871Z,30.07
2019-02-12T22:04:28.975Z,31.83
2019-02-12T22:06:58.901Z,35.93
2019-02-12T22:09:29.301Z,32.20
2019-02-12T22:11:59.224Z,33.70
2019-02-12T22:14:29.203Z,32.90
2019-02-12T22:16:58.897Z,27.27
2019-02-12T22:19:29.122Z,29.70
2019-02-12T22:21:58.747Z,31.30
2019-02-12T22:24:28.960Z,28.50
2019-02-12T22:26:58.672Z,29.23
2019-02-12T22:29:28.760Z,30.17
2019-02-12T22:31:58.483Z,29.50
2019-02-12T22:34:28.671Z,29.90
2019-02-12T22:36:58.416Z,33.57
2019-02-12T22:39:29.138Z,33.73
2019-02-12T22:41:58.938Z,27.30
2019-02-12T22:44:28.782Z,32.53
2019-02-12T22:46:59.762Z,30.63
2019-02-12T22:49:29.634Z,30.30
2019-02-12T22:51:59.344Z,36.13
2019-02-12T22:54:29.097Z,27.83
2019-02-12T22:56:58.726Z,30.13
2019-02-12T22:59:28.313Z,30.40
2019-02-12T23:01:58.096Z,28.77
2019-02-12T23:04:27.828Z,30.20
2019-02-12T23:06:59.561Z,29.93
2019-02-12T23:09:29.962Z,35.37
2019-02-12T23:11:59.729Z,27.87
2019-02-12T23:14:29.374Z,28.03
2019-02-12T23:16:59.254Z,34.57
2019-02-12T23:19:28.976Z,27.33
2019-02-12T23:21:58.898Z,27.53
2019-02-12T23:24:28.724Z,29.00
2019-02-12T23:26:58.424Z,30.23
2019-02-12T23:29:28.318Z,30.43
2019-02-12T23:31:59.663Z,29.40
2019-02-12T23:34:29.306Z,31.03
2019-02-12T23:36:59.284Z,31.20
2019-02-12T23:39:29.049Z,35.27
2019-02-12T23:41:58.760Z,28.93
2019-02-12T23:44:28.487Z,30.90
2019-02-12T23:46:58.107Z,26.10
2019-02-12T23:49:27.899Z,32.83
2019-02-12T23:51:57.461Z,32.77
2019-02-12T23:54:27.291Z,30.20
2019-02-12T23:56:56.847Z,28.87
2019-02-12T23:59:26.443Z,30.10
